Time;durP1;ratioP1;P1;durP2;ratioP2;P2;SDS_P1;SDS_P2;PMS_P1;PMS_P2;Temp;Humidity;BMP_temperature;BMP_pressure;BME280_temperature;BME280_humidity;BME280_pressure;Samples;Min_cycle;Max_cycle;Signal;HPM_P1;HPM_P2
2021/04/16 00:00:57;;;;;;;3.00;0.88;;;4.50;88.70;;;;;;6107590;23;20006;-90
2021/04/16 00:03:41;;;;;;;2.90;0.80;;;4.50;89.10;;;;;;6107646;23;20033;-90
2021/04/16 00:06:07;;;;;;;1.08;0.80;;;4.50;89.40;;;;;;6108212;23;20009;-92
2021/04/16 00:08:38;;;;;;;1.52;1.10;;;4.50;89.80;;;;;;6107453;23;20077;-91
2021/04/16 00:11:30;;;;;;;1.33;1.00;;;4.50;90.10;;;;;;6107756;23;20018;-91
2021/04/16 00:14:09;;;;;;;0.77;0.77;;;4.40;90.10;;;;;;6106453;23;20013;-92
2021/04/16 00:16:37;;;;;;;2.00;0.82;;;4.40;90.30;;;;;;6107653;23;20237;-91
2021/04/16 00:19:04;;;;;;;3.67;1.00;;;4.40;90.50;;;;;;6107649;23;20009;-92
2021/04/16 00:21:38;;;;;;;1.33;0.90;;;4.30;90.80;;;;;;6107727;23;20029;-91
2021/04/16 00:24:12;;;;;;;1.58;1.00;;;4.30;90.90;;;;;;6107742;23;20274;-92
2021/04/16 00:26:45;;;;;;;1.98;1.00;;;4.30;90.90;;;;;;6097537;23;20006;-92
2021/04/16 00:29:25;;;;;;;;;;;4.30;91.20;;;;;;6108760;23;20016;-92
2021/04/16 00:32:31;;;;;;;0.90;0.80;;;4.30;91.20;;;;;;6107703;23;19976;-92
2021/04/16 00:35:30;;;;;;;1.10;0.90;;;4.30;91.20;;;;;;6119907;23;20037;-92
2021/04/16 00:38:40;;;;;;;1.77;1.15;;;4.30;91.30;;;;;;6107773;23;20339;-92
2021/04/16 00:41:34;;;;;;;1.17;1.08;;;4.30;91.30;;;;;;6107193;23;20081;-92
2021/04/16 00:44:16;;;;;;;1.20;0.80;;;4.30;91.60;;;;;;6107728;23;20006;-92
2021/04/16 00:47:00;;;;;;;3.45;1.35;;;4.30;91.60;;;;;;6107295;23;20006;-92
2021/04/16 00:52:37;;;;;;;1.45;1.17;;;4.30;91.50;;;;;;6131702;23;20014;-92
2021/04/16 00:55:15;;;;;;;1.60;0.93;;;4.30;91.60;;;;;;6107199;23;20373;-92
2021/04/16 00:57:48;;;;;;;1.88;0.90;;;4.30;91.90;;;;;;6107470;23;20009;-91
2021/04/16 01:00:17;;;;;;;3.33;2.15;;;4.30;92.10;;;;;;6107265;23;20085;-91
2021/04/16 01:02:54;;;;;;;1.77;1.08;;;4.30;92.10;;;;;;6107235;23;20081;-92
2021/04/16 01:05:27;;;;;;;1.38;1.23;;;4.30;92.20;;;;;;6107176;23;20088;-92
2021/04/16 01:08:06;;;;;;;1.98;1.25;;;4.30;92.10;;;;;;6106645;23;20044;-91
2021/04/16 01:10:40;;;;;;;1.48;0.95;;;4.20;92.20;;;;;;6106671;23;20014;-91
2021/04/16 01:13:22;;;;;;;1.13;0.88;;;4.30;92.30;;;;;;6106957;23;20006;-92
2021/04/16 01:16:04;;;;;;;1.88;1.38;;;4.40;92.30;;;;;;6107271;23;20081;-91
2021/04/16 01:18:51;;;;;;;1.38;1.13;;;4.30;92.20;;;;;;6106620;23;20140;-92
2021/04/16 01:21:34;;;;;;;2.42;1.10;;;4.40;92.30;;;;;;6107537;23;20013;-91
2021/04/16 01:24:20;;;;;;;2.05;1.40;;;4.40;92.20;;;;;;6103818;23;20021;-90
2021/04/16 01:26:54;;;;;;;1.67;1.30;;;4.40;92.30;;;;;;6109916;23;20326;-91
2021/04/16 01:29:21;;;;;;;1.92;1.42;;;4.40;92.40;;;;;;6107075;23;20401;-92
2021/04/16 01:32:00;;;;;;;1.80;1.27;;;4.40;92.40;;;;;;6105786;23;20010;-91
2021/04/16 01:35:18;;;;;;;1.67;1.35;;;4.40;92.30;;;;;;6107375;23;20081;-92
2021/04/16 01:38:02;;;;;;;4.45;1.42;;;4.30;92.50;;;;;;6078407;23;20410;-92
2021/04/16 01:40:33;;;;;;;1.55;1.45;;;4.30;92.60;;;;;;6106678;23;20613;-92
2021/04/16 01:43:44;;;;;;;2.30;1.42;;;4.20;92.90;;;;;;6107063;23;20033;-92
2021/04/16 01:46:59;;;;;;;1.92;1.75;;;4.20;93.10;;;;;;6107332;23;20032;-91
2021/04/16 01:50:07;;;;;;;1.67;1.30;;;4.10;93.10;;;;;;6106190;23;20010;-92
2021/04/16 01:52:39;;;;;;;2.13;1.05;;;4.10;93.00;;;;;;6107302;23;20021;-93
2021/04/16 02:16:00;;;;;;;1.73;1.30;;;4.00;93.30;;;;;;6134213;23;20066;-93
2021/04/16 02:39:28;;;;;;;3.95;1.40;;;4.10;93.10;;;;;;5988713;24;20029;-92
2021/04/16 02:52:44;;;;;;;;;;;;;;;;;;;;;
2021/04/16 02:55:50;;;;;;;;;;;;;;;;;;;;;
2021/04/16 02:59:08;;;;;;;;;;;;;;;;;;;;;
2021/04/16 03:02:48;;;;;;;2.13;1.92;;;4.20;93.00;;;;;;6132976;23;20338;-92
2021/04/16 03:06:02;;;;;;;2.03;1.20;;;4.30;92.80;;;;;;6093952;23;20093;-92
2021/04/16 03:08:41;;;;;;;4.50;1.25;;;4.40;92.80;;;;;;6105941;23;20018;-92
2021/04/16 03:15:29;;;;;;;2.53;1.50;;;4.50;92.50;;;;;;5910117;24;20020;-92
2021/04/16 03:18:39;;;;;;;5.20;1.50;;;4.50;92.30;;;;;;5987008;23;20005;-91
2021/04/16 03:45:34;;;;;;;2.85;1.52;;;4.50;92.60;;;;;;5931854;24;20038;-93
2021/04/16 03:48:53;;;;;;;;;;;;;;;;;;;;;
2021/04/16 03:55:13;;;;;;;2.53;1.55;;;4.50;92.40;;;;;;5987446;24;20019;-90
2021/04/16 04:00:44;;;;;;;4.32;1.88;;;4.50;92.80;;;;;;6082818;23;20017;-92
2021/04/16 04:07:07;;;;;;;2.70;1.73;;;4.50;92.90;;;;;;6132935;23;20004;-92
2021/04/16 04:10:12;;;;;;;5.78;1.88;;;4.40;93.00;;;;;;6107351;23;20242;-91
2021/04/16 04:12:57;;;;;;;2.58;1.60;;;4.40;93.10;;;;;;6106981;23;20017;-91
2021/04/16 04:15:39;;;;;;;2.33;1.73;;;4.40;93.00;;;;;;6106703;23;20014;-91
2021/04/16 04:18:26;;;;;;;1.77;1.67;;;4.40;93.10;;;;;;6106754;23;20053;-91
2021/04/16 04:25:35;;;;;;;6.57;3.90;;;4.40;93.20;;;;;;5986927;24;20237;-91
2021/04/16 04:28:47;;;;;;;4.93;4.15;;;4.40;93.20;;;;;;5986331;24;20047;-91
2021/04/16 04:34:53;;;;;;;2.55;1.95;;;4.50;93.20;;;;;;5931082;24;20019;-91
2021/04/16 04:37:21;;;;;;;2.28;1.75;;;4.40;93.40;;;;;;5902946;24;20006;-92
2021/04/16 04:39:46;;;;;;;3.33;1.85;;;4.40;93.50;;;;;;5945122;24;20099;-92
2021/04/16 04:42:12;;;;;;;3.10;1.67;;;4.40;93.50;;;;;;6053891;23;20033;-95
2021/04/16 04:44:38;;;;;;;6.65;1.70;;;4.40;93.40;;;;;;6106801;23;20033;-94
2021/04/16 04:47:04;;;;;;;2.28;1.73;;;4.50;93.40;;;;;;6105957;23;20093;-92
2021/04/16 04:49:30;;;;;;;2.72;2.08;;;4.50;93.40;;;;;;6106042;23;20045;-93
2021/04/16 04:52:30;;;;;;;4.60;2.13;;;4.50;93.30;;;;;;6105493;23;20013;-93
2021/04/16 04:55:00;;;;;;;1.73;1.27;;;4.60;93.30;;;;;;6029952;23;20326;-92
2021/04/16 04:57:30;;;;;;;1.80;1.60;;;4.60;93.20;;;;;;6106745;23;20009;-94
2021/04/16 05:00:14;;;;;;;2.97;2.10;;;4.70;93.20;;;;;;6105800;23;20002;-93
2021/04/16 05:02:40;;;;;;;3.67;1.85;;;4.70;92.90;;;;;;6106052;23;20093;-92
2021/04/16 05:05:08;;;;;;;4.80;2.13;;;4.70;93.10;;;;;;6106172;23;20089;-93
2021/04/16 05:07:34;;;;;;;2.95;1.90;;;4.80;93.00;;;;;;6105848;23;20318;-93
2021/04/16 05:09:59;;;;;;;4.18;2.25;;;4.90;92.90;;;;;;6106073;23;20005;-91
2021/04/16 05:12:31;;;;;;;5.28;2.08;;;4.90;93.00;;;;;;6105969;23;20017;-92
2021/04/16 05:14:57;;;;;;;6.53;1.70;;;4.90;92.80;;;;;;6106106;23;20006;-92
2021/04/16 05:17:22;;;;;;;3.17;1.60;;;5.00;92.80;;;;;;6105962;23;20016;-92
2021/04/16 05:19:48;;;;;;;2.30;1.50;;;5.00;92.70;;;;;;6105925;23;20021;-92
2021/04/16 05:22:14;;;;;;;1.98;1.40;;;5.10;92.60;;;;;;6106544;23;20262;-92
2021/04/16 05:24:39;;;;;;;7.28;2.13;;;5.10;92.70;;;;;;6106226;23;20014;-93
2021/04/16 05:27:40;;;;;;;3.05;1.42;;;5.10;92.70;;;;;;6106211;23;20069;-93
2021/04/16 05:30:07;;;;;;;3.33;1.65;;;5.20;92.80;;;;;;6105952;23;20006;-92
2021/04/16 05:32:32;;;;;;;4.40;1.75;;;5.20;92.80;;;;;;6106866;23;20342;-93
2021/04/16 05:34:58;;;;;;;5.88;1.40;;;5.20;92.40;;;;;;6106802;23;20041;-93
2021/04/16 05:37:23;;;;;;;3.53;2.42;;;5.30;92.20;;;;;;6112529;23;20013;-94
2021/04/16 05:39:51;;;;;;;4.88;2.15;;;5.30;92.00;;;;;;6105807;23;20009;-93
2021/04/16 05:42:20;;;;;;;4.95;1.27;;;5.30;91.70;;;;;;6107572;23;20077;-94
2021/04/16 05:44:45;;;;;;;7.32;2.80;;;5.40;91.80;;;;;;6108089;23;20080;-94
2021/04/16 05:47:16;;;;;;;6.32;2.65;;;5.40;91.90;;;;;;6108437;23;20023;-93
2021/04/16 05:49:42;;;;;;;3.42;1.88;;;5.50;91.90;;;;;;6108961;23;20041;-93
2021/04/16 05:52:10;;;;;;;3.70;1.60;;;5.50;91.90;;;;;;6107801;23;20020;-92
2021/04/16 05:54:36;;;;;;;3.05;1.70;;;5.60;91.10;;;;;;6108519;23;20005;-91
2021/04/16 05:57:02;;;;;;;2.53;1.58;;;5.60;91.10;;;;;;6108176;23;20002;-93
2021/04/16 05:59:27;;;;;;;3.25;1.63;;;5.60;90.80;;;;;;6108106;23;20008;-93
2021/04/16 06:02:21;;;;;;;5.30;1.83;;;5.70;90.60;;;;;;6108110;23;20035;-94
2021/04/16 06:04:47;;;;;;;3.78;1.60;;;5.70;90.60;;;;;;6108112;23;20016;-93
2021/04/16 06:07:12;;;;;;;3.00;1.52;;;5.80;90.70;;;;;;6108236;23;20089;-93
2021/04/16 06:09:38;;;;;;;4.00;1.50;;;5.70;90.40;;;;;;6107428;23;20005;-93
2021/04/16 06:12:04;;;;;;;2.80;1.80;;;5.80;88.70;;;;;;6108037;23;20014;-93
2021/04/16 06:14:29;;;;;;;1.63;1.25;;;5.80;88.90;;;;;;6108463;23;20084;-93
2021/04/16 06:17:08;;;;;;;3.45;1.38;;;5.80;89.00;;;;;;6108390;23;20001;-93
2021/04/16 06:19:34;;;;;;;3.53;1.50;;;5.90;88.00;;;;;;6107409;23;20006;-92
2021/04/16 06:22:00;;;;;;;6.32;1.77;;;5.90;88.90;;;;;;6107876;23;20006;-92
2021/04/16 06:24:25;;;;;;;2.72;1.75;;;5.90;88.70;;;;;;6107912;23;20016;-93
2021/04/16 06:26:51;;;;;;;3.97;1.23;;;5.90;88.90;;;;;;6108018;23;20046;-93
2021/04/16 06:29:16;;;;;;;1.90;1.58;;;5.90;89.00;;;;;;6107919;23;20108;-91
2021/04/16 06:31:42;;;;;;;2.35;1.30;;;5.90;90.50;;;;;;6107897;23;20545;-93
2021/04/16 06:34:11;;;;;;;1.80;1.20;;;5.90;89.50;;;;;;6107931;23;20002;-92
2021/04/16 06:36:36;;;;;;;3.80;1.15;;;5.80;90.40;;;;;;6107359;23;20013;-92
2021/04/16 06:39:03;;;;;;;4.15;1.42;;;5.80;90.20;;;;;;6132048;23;20014;-92
2021/04/16 06:41:31;;;;;;;4.82;1.48;;;5.70;90.20;;;;;;6107622;23;20009;-92
2021/04/16 06:44:01;;;;;;;4.22;1.50;;;5.60;90.80;;;;;;6108264;23;20080;-92
2021/04/16 06:46:39;;;;;;;1.20;1.00;;;5.60;91.40;;;;;;6108266;23;20045;-92
2021/04/16 06:49:11;;;;;;;4.15;1.38;;;5.60;91.30;;;;;;6107847;23;20089;-93
2021/04/16 06:52:15;;;;;;;1.70;1.08;;;5.60;91.50;;;;;;6132597;23;20014;-95
2021/04/16 06:54:58;;;;;;;2.75;1.52;;;5.70;91.60;;;;;;6107842;23;20254;-93
2021/04/16 06:58:04;;;;;;;1.60;1.35;;;5.80;91.40;;;;;;6133373;23;20005;-93
2021/04/16 07:01:01;;;;;;;1.63;0.90;;;5.90;91.50;;;;;;6111978;23;20026;-93
2021/04/16 07:03:31;;;;;;;2.35;1.27;;;6.00;91.10;;;;;;6107566;23;20016;-93
2021/04/16 07:06:26;;;;;;;2.45;1.33;;;5.90;91.10;;;;;;6107357;23;20327;-94
2021/04/16 07:09:05;;;;;;;2.85;1.55;;;6.00;90.80;;;;;;6101580;23;20013;-94
2021/04/16 07:11:37;;;;;;;6.80;2.17;;;6.00;91.50;;;;;;6106941;23;20010;-94
2021/04/16 07:14:37;;;;;;;4.53;1.42;;;6.00;90.70;;;;;;6107392;23;20008;-94
2021/04/16 07:17:04;;;;;;;2.88;1.38;;;5.90;90.80;;;;;;6107524;23;20299;-91
2021/04/16 07:19:31;;;;;;;1.52;1.15;;;5.80;91.60;;;;;;6106989;23;20393;-92
2021/04/16 07:22:08;;;;;;;3.45;1.27;;;5.70;91.40;;;;;;6132189;23;20010;-93
2021/04/16 07:24:34;;;;;;;1.65;1.23;;;5.80;92.00;;;;;;6107381;23;20429;-92
2021/04/16 07:27:26;;;;;;;2.25;0.93;;;5.90;91.70;;;;;;6106917;23;20077;-95
2021/04/16 07:30:46;;;;;;;2.20;1.30;;;6.00;91.40;;;;;;6106041;23;20009;-95
2021/04/16 07:33:44;;;;;;;4.90;1.40;;;6.00;91.50;;;;;;6107000;23;20016;-93
2021/04/16 07:39:34;;;;;;;;;;;6.10;91.60;;;;;;6132315;23;20010;-91
2021/04/16 07:42:09;;;;;;;4.30;1.70;;;6.10;91.10;;;;;;6107574;23;19905;-92
2021/04/16 07:44:39;;;;;;;8.30;1.67;;;6.10;91.60;;;;;;6107373;23;20006;-91
2021/04/16 07:47:23;;;;;;;3.08;1.40;;;6.20;90.80;;;;;;6106352;23;20044;-92
2021/04/16 07:50:12;;;;;;;8.73;2.53;;;6.20;90.20;;;;;;6107000;23;20009;-91
2021/04/16 07:52:46;;;;;;;2.95;1.63;;;6.20;90.20;;;;;;6108104;23;20010;-91
2021/04/16 07:55:31;;;;;;;3.28;1.70;;;6.20;89.90;;;;;;6109667;23;20005;-91
2021/04/16 07:58:13;;;;;;;4.55;1.20;;;6.20;90.90;;;;;;6106256;23;20069;-92
2021/04/16 08:00:41;;;;;;;3.85;1.42;;;6.30;90.60;;;;;;6106912;23;20085;-91
2021/04/16 08:03:15;;;;;;;4.93;1.60;;;6.40;90.70;;;;;;6107001;23;20010;-92
2021/04/16 08:05:50;;;;;;;4.40;1.65;;;6.50;90.50;;;;;;6106950;23;20017;-91
2021/04/16 08:08:45;;;;;;;3.10;1.23;;;6.70;90.10;;;;;;6106776;23;20010;-92
2021/04/16 08:11:15;;;;;;;2.75;1.40;;;6.80;89.20;;;;;;6106830;23;20005;-92
2021/04/16 08:13:45;;;;;;;2.55;0.93;;;6.80;88.30;;;;;;6106974;23;20010;-92
2021/04/16 08:16:12;;;;;;;5.78;1.85;;;6.80;88.00;;;;;;6106659;23;20002;-92
2021/04/16 08:18:40;;;;;;;4.82;3.03;;;6.80;86.80;;;;;;6107032;23;20065;-93
2021/04/16 08:21:21;;;;;;;9.65;5.20;;;6.80;87.50;;;;;;6107601;23;20010;-92
2021/04/16 08:23:49;;;;;;;5.45;4.18;;;6.90;87.20;;;;;;6107347;23;20081;-93
2021/04/16 08:26:17;;;;;;;7.78;5.93;;;7.00;87.40;;;;;;6107896;23;20077;-93
2021/04/16 08:28:54;;;;;;;82.53;43.42;;;7.00;87.70;;;;;;6108671;23;20016;-93
2021/04/16 08:31:38;;;;;;;22.20;12.68;;;7.10;87.90;;;;;;6108075;23;20006;-93
2021/04/16 08:34:12;;;;;;;116.15;56.25;;;7.30;87.70;;;;;;6107260;23;20246;-93
2021/04/16 08:36:41;;;;;;;13.00;9.20;;;7.50;84.30;;;;;;6107613;23;20006;-92
2021/04/16 08:39:40;;;;;;;2.75;2.13;;;7.50;85.60;;;;;;6107583;23;20061;-94
2021/04/16 08:42:14;;;;;;;1.88;1.60;;;7.50;84.80;;;;;;6107585;23;20006;-92
2021/04/16 08:45:04;;;;;;;3.40;1.23;;;7.50;84.40;;;;;;6106911;23;20010;-92
2021/04/16 08:47:41;;;;;;;1.77;1.30;;;7.60;83.30;;;;;;6107044;23;20005;-93
2021/04/16 08:50:08;;;;;;;1.73;1.40;;;7.60;82.60;;;;;;6107161;23;20006;-92
2021/04/16 08:52:56;;;;;;;2.17;1.40;;;7.70;84.60;;;;;;6107146;23;20006;-93
2021/04/16 08:55:33;;;;;;;1.88;1.42;;;7.80;83.10;;;;;;6106823;23;20065;-92
2021/04/16 08:58:29;;;;;;;2.65;1.58;;;7.90;83.00;;;;;;6107261;23;20342;-92
2021/04/16 09:00:57;;;;;;;3.63;1.50;;;8.00;83.90;;;;;;6090594;23;20334;-93
2021/04/16 09:03:27;;;;;;;2.35;1.52;;;8.10;81.90;;;;;;6107341;23;20005;-93
2021/04/16 09:06:00;;;;;;;2.55;1.38;;;8.20;81.80;;;;;;6106923;23;20016;-93
2021/04/16 09:08:29;;;;;;;5.60;1.70;;;8.30;81.70;;;;;;6107061;23;20400;-93
2021/04/16 09:10:59;;;;;;;1.92;1.52;;;8.40;80.80;;;;;;6107026;23;20010;-93
2021/04/16 09:13:40;;;;;;;1.42;1.00;;;8.40;79.40;;;;;;6107242;23;20370;-92
2021/04/16 09:16:15;;;;;;;3.88;1.95;;;8.50;80.30;;;;;;6106807;23;20002;-94
2021/04/16 09:18:44;;;;;;;2.63;1.33;;;8.60;79.50;;;;;;6106836;23;20033;-93
2021/04/16 09:21:25;;;;;;;4.68;1.90;;;8.60;75.90;;;;;;6108919;23;20033;-93
2021/04/16 09:23:58;;;;;;;4.93;1.75;;;8.60;76.20;;;;;;6107273;23;20072;-92
2021/04/16 09:26:52;;;;;;;;;;;8.50;77.70;;;;;;6107606;23;20006;-93
2021/04/16 09:29:27;;;;;;;3.80;1.30;;;8.50;77.40;;;;;;6106650;23;19981;-92
2021/04/16 09:32:04;;;;;;;1.77;1.23;;;8.50;77.50;;;;;;6106629;23;20009;-92
2021/04/16 09:34:45;;;;;;;3.30;1.25;;;8.50;78.00;;;;;;6107290;23;20402;-93
2021/04/16 09:37:30;;;;;;;4.05;1.25;;;8.50;76.50;;;;;;6106830;23;20006;-94
2021/04/16 09:40:17;;;;;;;2.17;1.38;;;8.50;75.10;;;;;;6106700;23;20010;-93
2021/04/16 09:43:17;;;;;;;5.50;1.40;;;8.50;77.80;;;;;;6107128;23;20005;-93
2021/04/16 09:45:46;;;;;;;1.73;1.10;;;8.50;76.30;;;;;;6106738;23;20006;-92
2021/04/16 09:48:17;;;;;;;3.30;1.27;;;8.40;75.80;;;;;;6107052;23;20093;-93
2021/04/16 09:50:50;;;;;;;2.25;1.25;;;8.50;75.80;;;;;;6106202;23;20106;-93
2021/04/16 09:53:17;;;;;;;4.80;2.00;;;8.50;76.30;;;;;;6106730;23;20381;-93
2021/04/16 09:55:55;;;;;;;2.67;1.25;;;8.60;76.20;;;;;;6106627;23;20390;-93
2021/04/16 09:58:39;;;;;;;3.70;1.60;;;8.60;77.30;;;;;;6106976;23;20006;-93
2021/04/16 10:01:07;;;;;;;1.80;1.30;;;8.70;73.90;;;;;;6106913;23;20452;-92
2021/04/16 10:03:35;;;;;;;5.05;1.15;;;8.80;75.90;;;;;;6106782;23;20013;-92
2021/04/16 10:06:34;;;;;;;3.05;1.08;;;8.80;76.90;;;;;;6106476;23;20017;-92
2021/04/16 10:09:06;;;;;;;2.28;1.38;;;9.00;75.10;;;;;;6107104;23;20002;-92
2021/04/16 10:11:47;;;;;;;4.03;1.75;;;9.20;76.20;;;;;;6109655;23;20104;-93
2021/04/16 10:14:24;;;;;;;2.22;1.52;;;9.40;74.20;;;;;;6103826;23;20297;-94
2021/04/16 10:16:57;;;;;;;2.42;1.20;;;9.50;73.60;;;;;;6107446;23;20081;-93
2021/04/16 10:19:30;;;;;;;;;;;9.60;74.50;;;;;;6107358;23;20006;-93
2021/04/16 10:22:20;;;;;;;2.55;1.60;;;9.80;71.80;;;;;;6105536;23;19905;-92
2021/04/16 10:28:59;;;;;;;2.00;1.15;;;9.90;73.80;;;;;;6141905;23;20250;-93
2021/04/16 10:44:02;;;;;;;3.65;1.50;;;10.50;72.30;;;;;;6132225;23;20076;-90
2021/04/16 11:01:51;;;;;;;4.60;1.58;;;11.60;65.70;;;;;;6132557;23;20097;-94
2021/04/16 11:32:37;;;;;;;2.58;0.90;;;11.50;64.00;;;;;;6132213;23;20044;-94
2021/04/16 12:39:36;;;;;;;2.03;1.08;;;12.90;59.80;;;;;;6131669;23;20013;-91
2021/04/16 12:42:04;;;;;;;2.75;1.58;;;12.70;61.30;;;;;;6106926;23;20338;-92
2021/04/16 12:44:48;;;;;;;3.72;1.95;;;12.50;60.80;;;;;;6105941;23;20318;-92
2021/04/16 12:47:25;;;;;;;3.08;1.70;;;12.30;62.80;;;;;;6106770;23;20334;-93
2021/04/16 12:49:52;;;;;;;4.55;2.15;;;12.20;62.70;;;;;;6106424;23;20029;-92
2021/04/16 12:52:19;;;;;;;3.55;1.85;;;12.10;62.50;;;;;;6106841;23;20016;-92
2021/04/16 12:54:49;;;;;;;2.67;1.45;;;12.10;61.70;;;;;;6107135;23;20006;-93
2021/04/16 12:57:37;;;;;;;4.88;2.22;;;12.10;62.80;;;;;;6106715;23;20002;-92
2021/04/16 13:00:15;;;;;;;2.15;1.52;;;12.10;62.80;;;;;;6084438;23;20002;-92
2021/04/16 13:02:42;;;;;;;2.20;1.08;;;12.10;63.10;;;;;;6106978;23;20350;-91
2021/04/16 13:05:12;;;;;;;2.85;1.20;;;12.00;62.10;;;;;;6106606;23;20034;-92
2021/04/16 13:07:38;;;;;;;3.33;1.27;;;12.10;62.90;;;;;;6107196;23;20072;-92
2021/04/16 13:10:13;;;;;;;3.28;1.10;;;11.90;60.10;;;;;;6107606;23;20010;-91
2021/04/16 13:12:39;;;;;;;3.17;1.70;;;11.90;60.40;;;;;;6106807;23;20009;-90
2021/04/16 13:15:05;;;;;;;2.70;1.23;;;11.80;60.80;;;;;;6107254;23;20030;-91
2021/04/16 13:17:31;;;;;;;4.15;1.10;;;11.80;61.40;;;;;;6106799;23;20013;-89
2021/04/16 13:19:57;;;;;;;2.33;1.48;;;11.80;61.40;;;;;;6107574;23;20242;-90
2021/04/16 13:22:25;;;;;;;5.68;1.25;;;11.90;61.50;;;;;;6107058;23;20013;-91
2021/04/16 13:24:51;;;;;;;1.63;1.23;;;11.90;63.10;;;;;;6107081;23;20014;-92
2021/04/16 13:27:20;;;;;;;1.60;1.20;;;11.80;63.80;;;;;;6107610;23;20002;-92
2021/04/16 13:29:46;;;;;;;2.78;1.42;;;11.70;64.30;;;;;;6106771;23;20368;-92
2021/04/16 13:32:15;;;;;;;1.63;1.05;;;11.50;64.50;;;;;;6107055;23;20010;-91
2021/04/16 13:34:42;;;;;;;3.83;1.65;;;11.50;65.10;;;;;;6107340;23;20005;-91
2021/04/16 13:37:12;;;;;;;2.88;1.35;;;11.40;65.60;;;;;;6107128;23;20246;-92
2021/04/16 13:39:40;;;;;;;2.88;1.40;;;11.30;65.40;;;;;;6107243;23;20002;-91
2021/04/16 13:42:06;;;;;;;1.90;1.23;;;11.20;65.80;;;;;;6107117;23;20005;-91
2021/04/16 13:44:31;;;;;;;4.60;1.38;;;11.20;65.20;;;;;;6107421;23;20033;-92
2021/04/16 13:47:00;;;;;;;2.45;1.38;;;11.30;66.20;;;;;;6107718;23;20088;-91
2021/04/16 13:49:29;;;;;;;1.50;0.98;;;11.30;64.80;;;;;;6107526;23;20017;-91
2021/04/16 13:51:55;;;;;;;2.25;1.40;;;11.40;65.00;;;;;;6106921;23;20038;-91
2021/04/16 13:54:20;;;;;;;2.47;1.13;;;11.40;62.50;;;;;;6106575;23;20001;-92
2021/04/16 13:56:48;;;;;;;3.53;1.38;;;11.40;62.00;;;;;;6107667;23;20006;-92
2021/04/16 13:59:13;;;;;;;1.42;0.80;;;11.40;63.00;;;;;;6106722;23;20017;-92
2021/04/16 14:01:41;;;;;;;3.13;1.15;;;11.60;62.50;;;;;;6107441;23;19998;-91
2021/04/16 14:04:19;;;;;;;3.78;1.00;;;11.70;62.30;;;;;;6109034;23;20014;-90
2021/04/16 14:06:44;;;;;;;1.95;1.10;;;11.80;61.90;;;;;;6109025;23;20065;-92
2021/04/16 14:09:14;;;;;;;1.70;1.10;;;12.00;60.90;;;;;;6108731;23;20005;-92
2021/04/16 14:11:40;;;;;;;2.35;1.38;;;11.90;60.80;;;;;;6108697;23;20037;-91
2021/04/16 14:14:14;;;;;;;5.28;1.40;;;12.00;61.00;;;;;;6108763;23;20005;-91
2021/04/16 14:16:41;;;;;;;3.75;1.10;;;11.90;61.60;;;;;;6133804;23;20085;-92
2021/04/16 14:19:13;;;;;;;1.52;1.08;;;11.80;62.00;;;;;;6107182;23;20013;-89
2021/04/16 14:21:42;;;;;;;1.10;1.00;;;11.80;63.30;;;;;;6107233;23;20012;-91
2021/04/16 14:24:11;;;;;;;3.50;1.05;;;11.70;61.70;;;;;;6131951;23;20073;-89
2021/04/16 14:26:37;;;;;;;2.88;1.20;;;11.70;62.00;;;;;;6107185;23;20006;-89
2021/04/16 14:29:03;;;;;;;3.05;1.38;;;11.60;61.80;;;;;;6133262;23;20101;-90
2021/04/16 14:31:28;;;;;;;3.17;1.42;;;11.60;61.90;;;;;;6107453;23;20110;-88
2021/04/16 14:33:54;;;;;;;3.72;1.40;;;11.60;62.50;;;;;;6107196;23;20049;-89
2021/04/16 14:36:19;;;;;;;3.78;1.60;;;11.50;60.70;;;;;;6106712;23;20001;-88
2021/04/16 14:38:45;;;;;;;1.90;1.20;;;11.50;61.60;;;;;;6106519;23;20010;-88
2021/04/16 14:41:16;;;;;;;3.70;1.27;;;11.40;61.80;;;;;;6106382;23;20272;-89
2021/04/16 14:43:42;;;;;;;4.53;1.27;;;11.30;61.20;;;;;;6130921;23;20018;-88
2021/04/16 14:46:08;;;;;;;2.47;1.10;;;11.30;62.20;;;;;;6106158;23;20012;-89
2021/04/16 14:48:33;;;;;;;2.22;1.20;;;11.20;61.60;;;;;;6105669;23;20016;-88
2021/04/16 14:51:05;;;;;;;4.53;1.02;;;11.20;62.30;;;;;;6131090;23;20020;-89
2021/04/16 14:53:46;;;;;;;1.83;0.70;;;11.10;61.20;;;;;;6105568;23;20013;-89
2021/04/16 14:56:14;;;;;;;2.85;1.27;;;11.00;62.60;;;;;;6131171;23;20237;-89
2021/04/16 14:58:44;;;;;;;1.63;1.00;;;11.00;61.70;;;;;;6130835;23;20002;-88
2021/04/16 15:01:14;;;;;;;2.15;1.60;;;11.00;62.00;;;;;;6105940;23;20088;-88
2021/04/16 15:03:40;;;;;;;3.75;1.38;;;11.00;62.00;;;;;;6131634;23;20077;-88
2021/04/16 15:06:08;;;;;;;6.03;1.38;;;11.00;62.40;;;;;;6131037;23;20010;-88
2021/04/16 15:08:41;;;;;;;3.38;1.30;;;11.00;63.00;;;;;;6105323;23;20024;-88
2021/04/16 15:11:13;;;;;;;2.65;1.40;;;11.00;61.80;;;;;;6131466;23;20006;-88
2021/04/16 15:13:39;;;;;;;1.73;1.15;;;11.00;62.50;;;;;;6104063;23;20043;-89
2021/04/16 15:16:08;;;;;;;1.42;1.23;;;10.90;62.60;;;;;;6104915;23;20008;-88
2021/04/16 15:18:35;;;;;;;3.78;1.98;;;10.90;62.30;;;;;;6105078;23;20006;-88
2021/04/16 15:21:04;;;;;;;2.03;1.20;;;10.90;62.90;;;;;;6130445;23;20195;-90
2021/04/16 15:23:29;;;;;;;1.30;0.90;;;11.00;63.30;;;;;;6105193;23;20242;-93
2021/04/16 15:25:58;;;;;;;1.75;1.30;;;11.00;63.20;;;;;;6104407;23;20044;-88
2021/04/16 15:28:28;;;;;;;5.22;1.20;;;11.00;62.90;;;;;;6104252;23;20037;-90
2021/04/16 15:30:59;;;;;;;2.88;1.40;;;11.00;63.30;;;;;;6105047;23;20010;-89
2021/04/16 15:47:55;;;;;;;4.95;2.13;;;11.10;63.10;;;;;;6130560;23;20089;-89
2021/04/16 15:50:28;;;;;;;1.88;1.38;;;11.20;63.90;;;;;;6105296;23;20057;-89
2021/04/16 15:52:54;;;;;;;2.00;1.20;;;11.20;63.40;;;;;;6104957;23;20046;-89
2021/04/16 15:55:20;;;;;;;1.58;1.10;;;11.20;63.20;;;;;;6130406;23;20346;-89
2021/04/16 15:57:47;;;;;;;3.50;0.93;;;11.20;62.90;;;;;;6105276;23;20013;-90
2021/04/16 16:00:20;;;;;;;2.60;1.50;;;11.20;63.70;;;;;;6104892;23;20036;-87
2021/04/16 16:02:45;;;;;;;2.13;1.00;;;11.20;62.70;;;;;;6130220;23;20016;-87
2021/04/16 16:05:12;;;;;;;1.63;1.08;;;11.20;62.50;;;;;;6131048;23;20302;-88
2021/04/16 16:07:37;;;;;;;3.35;1.02;;;11.20;63.60;;;;;;6104171;23;20477;-88
2021/04/16 16:10:05;;;;;;;1.70;1.08;;;11.20;62.90;;;;;;6104945;23;20010;-89
2021/04/16 16:12:31;;;;;;;3.55;1.35;;;11.20;63.20;;;;;;6104545;23;20362;-89
2021/04/16 16:15:01;;;;;;;2.83;1.10;;;11.20;63.30;;;;;;6130189;23;20002;-87
2021/04/16 16:17:39;;;;;;;1.80;1.10;;;11.20;62.20;;;;;;6105157;23;20246;-89
2021/04/16 16:20:09;;;;;;;1.38;1.20;;;11.20;63.40;;;;;;6130164;23;20002;-89
2021/04/16 16:22:35;;;;;;;4.18;1.35;;;11.00;63.30;;;;;;6130559;23;20022;-89
2021/04/16 16:25:00;;;;;;;2.10;1.30;;;11.00;63.60;;;;;;6104953;23;20014;-90
2021/04/16 16:27:42;;;;;;;4.57;1.60;;;11.00;62.40;;;;;;6129831;23;20334;-89
2021/04/16 16:30:12;;;;;;;7.07;1.20;;;11.00;62.00;;;;;;6105017;23;20269;-86
2021/04/16 16:32:39;;;;;;;1.75;1.30;;;11.10;61.60;;;;;;6103499;23;20006;-88
2021/04/16 16:35:09;;;;;;;3.63;1.13;;;11.10;61.80;;;;;;6129971;23;20064;-88
2021/04/16 16:37:34;;;;;;;1.70;1.10;;;11.10;61.50;;;;;;6103658;23;20010;-87
2021/04/16 16:40:00;;;;;;;3.00;1.35;;;11.10;61.90;;;;;;6104684;23;20002;-88
2021/04/16 16:42:39;;;;;;;2.47;1.38;;;11.10;62.30;;;;;;6104339;23;20006;-87
2021/04/16 16:45:09;;;;;;;1.85;1.35;;;11.20;61.70;;;;;;6104292;23;20010;-88
2021/04/16 16:47:35;;;;;;;1.30;0.93;;;11.20;62.60;;;;;;6130133;23;20033;-89
2021/04/16 16:50:00;;;;;;;2.78;1.00;;;11.20;61.60;;;;;;6129414;23;20006;-88
2021/04/16 16:52:26;;;;;;;7.53;1.48;;;11.20;61.70;;;;;;6104548;23;20014;-87
2021/04/16 16:54:51;;;;;;;4.50;1.52;;;11.10;62.00;;;;;;6104285;23;20332;-89
2021/04/16 16:57:20;;;;;;;2.55;1.02;;;11.10;62.40;;;;;;6103987;23;20005;-89
2021/04/16 16:59:46;;;;;;;2.35;1.50;;;11.10;61.60;;;;;;6104708;23;20353;-89
2021/04/16 17:02:13;;;;;;;2.90;1.60;;;11.00;61.00;;;;;;6104392;23;20013;-87
2021/04/16 17:04:39;;;;;;;3.88;1.58;;;11.00;61.80;;;;;;6129238;23;20034;-87
2021/04/16 17:07:05;;;;;;;7.20;1.20;;;11.00;62.00;;;;;;6104140;23;20069;-90
2021/04/16 17:09:31;;;;;;;2.28;1.50;;;11.00;60.60;;;;;;6103523;23;20339;-87
2021/04/16 17:11:58;;;;;;;2.55;1.10;;;11.00;60.80;;;;;;6103085;23;20044;-91
2021/04/16 17:14:29;;;;;;;1.77;1.10;;;10.90;61.30;;;;;;6107626;23;20215;-89
2021/04/16 17:16:55;;;;;;;4.80;1.50;;;10.90;61.50;;;;;;6106804;23;20032;-91
2021/04/16 17:19:21;;;;;;;2.75;1.20;;;10.90;61.60;;;;;;6131864;23;20339;-92
2021/04/16 17:21:47;;;;;;;2.53;1.00;;;10.90;61.20;;;;;;6106620;23;20002;-93
2021/04/16 17:24:23;;;;;;;3.65;1.42;;;10.90;61.10;;;;;;6107993;23;20085;-92
2021/04/16 17:27:10;;;;;;;2.90;1.45;;;10.90;61.50;;;;;;6107027;23;20006;-94
2021/04/16 17:29:42;;;;;;;3.58;1.40;;;10.80;61.60;;;;;;6107262;23;20002;-93
2021/04/16 17:32:10;;;;;;;1.58;1.00;;;10.80;61.20;;;;;;6107137;23;20076;-93
2021/04/16 17:34:36;;;;;;;1.92;1.30;;;10.80;60.80;;;;;;6106878;23;20068;-89
2021/04/16 17:37:01;;;;;;;12.93;4.32;;;10.70;61.20;;;;;;6107838;23;20077;-92
2021/04/16 17:39:27;;;;;;;3.90;2.35;;;10.70;61.40;;;;;;6134052;23;20012;-92
2021/04/16 17:42:03;;;;;;;2.63;1.70;;;10.70;61.70;;;;;;6109118;23;20006;-93